Página principal
METAR-TAF:

METAR-TAF

Aeroportos :

Pago Pago, Ilhas Menores Distantes dos Estados Unidos

latitude: 14-20S, longitude: 170-43W, altura: 3 m

Observação actual do tempo

O boletim foi feito há 36 minutos, às 15:50 UTC
Vento 4 kt com direcção variável
Temperatura 24°C
Humidade 94%
Pressão 1010 hPa
Visibilidade: 16.1 km
Nuvens dispersasa uma altura de 2000 ft, Cumulus congestus.
Nuvens dispersasa uma altura de 4000 ft

METAR: NSTU 231550Z VRB04KT 10SM SCT020TCU SCT040 24/23 A2983 RMK TCU NE AND S SLP103 T02440225

Hora: 05:26 (16:26 UTC)

Previsão

O boletim foi feito há 4 horas e 51 minutos, às 11:35 UTC
Previsão válida de 23 às 12 UTC a 24 às 12 UTC
Vento 8 kt de este
Visibilidade: 10 km
Nuvens dispersasa uma altura de 1800 ft
Nuvens dispersasa uma altura de 4000 ft

TAF: NSTU 231135Z 2312/2412 10008KT P6SM SCT018 SCT040

Observações e previsões do tempo de mais de 4000 aeroportos (mensagens METAR e TAF).

As estações disponíveis são os pontos amarelos e vermelhos sobre o mapa.

Mova o rato sobre o mapa para ver o nome da estação.

Depois clique no ponto para visualizar as observações e previsões meteorológicas.

Para alterar o mapa : clique nos botões verdes com uma cruz preta para aumentar o zoom; no botão verde com uma pitada de zoom; ou nas setas verdes para mapas adjacentes.


METAR-TAF: